Time,TemperatureF,DewpointF,PressureIn,WindDirection,WindDirectionDegrees,WindSpeedMPH,WindSpeedGustMPH,Humidity,HourlyPrecipIn,Conditions,Clouds,dailyrainin,SoftwareType,DateUTC
2013-01-21 00:30:00,40.1,34.1,30.06,NE,45,0.7,0.7,79,0.00,,,0.00,WUHU216HW,2013-01-21 05:30:00,
2013-01-21 00:35:00,40.1,34.1,30.06,NE,45,0.7,0.7,79,0.00,,,0.00,WUHU216HW,2013-01-21 05:35:00,
2013-01-21 01:00:00,39.4,33.5,30.05,NE,45,0.4,0.4,79,0.00,,,0.00,WUHU216HW,2013-01-21 06:00:00,
2013-01-21 01:05:00,39.4,33.5,30.05,NE,45,0.4,0.4,79,0.00,,,0.00,WUHU216HW,2013-01-21 06:05:00,
2013-01-21 01:30:00,38.7,32.8,30.05,NE,45,0.0,0.0,79,0.00,,,0.00,WUHU216HW,2013-01-21 06:30:00,
2013-01-21 01:35:00,38.7,32.8,30.05,NE,45,0.0,0.0,79,0.00,,,0.00,WUHU216HW,2013-01-21 06:35:00,
2013-01-21 02:00:00,38.0,31.8,30.05,North,0,0.0,0.0,78,0.00,,,0.00,WUHU216HW,2013-01-21 07:00:00,
2013-01-21 02:05:00,38.0,31.8,30.05,North,0,0.0,0.0,78,0.00,,,0.00,WUHU216HW,2013-01-21 07:05:00,
2013-01-21 02:30:00,37.3,31.3,30.05,North,0,0.0,0.0,79,0.00,,,0.00,WUHU216HW,2013-01-21 07:30:00,
2013-01-21 02:35:00,37.3,31.3,30.05,North,0,0.0,0.0,79,0.00,,,0.00,WUHU216HW,2013-01-21 07:35:00,
2013-01-21 03:00:00,36.5,30.6,30.05,North,0,0.0,0.0,79,0.00,,,0.00,WUHU216HW,2013-01-21 08:00:00,
2013-01-21 03:05:00,36.5,30.6,30.05,North,0,0.0,0.0,79,0.00,,,0.00,WUHU216HW,2013-01-21 08:05:00,
2013-01-21 04:00:00,35.3,29.7,30.03,North,0,0.0,0.0,80,0.00,,,0.00,WUHU216HW,2013-01-21 09:00:00,
2013-01-21 04:05:00,35.3,29.7,30.03,North,0,0.0,0.0,80,0.00,,,0.00,WUHU216HW,2013-01-21 09:05:00,
2013-01-21 04:30:00,34.7,29.4,30.03,North,0,0.0,0.0,81,0.00,,,0.00,WUHU216HW,2013-01-21 09:30:00,
2013-01-21 04:35:00,34.7,29.4,30.03,North,0,0.0,0.0,81,0.00,,,0.00,WUHU216HW,2013-01-21 09:35:00,
2013-01-21 05:00:00,34.0,28.7,30.03,North,0,0.0,0.0,81,0.00,,,0.00,WUHU216HW,2013-01-21 10:00:00,
2013-01-21 05:05:00,34.0,28.7,30.03,North,0,0.0,0.0,81,0.00,,,0.00,WUHU216HW,2013-01-21 10:05:00,
2013-01-21 05:30:00,33.3,28.1,30.03,North,0,0.0,0.0,81,0.00,,,0.00,WUHU216HW,2013-01-21 10:30:00,
2013-01-21 05:35:00,33.3,28.1,30.03,North,0,0.0,0.0,81,0.00,,,0.00,WUHU216HW,2013-01-21 10:35:00,
2013-01-21 06:00:00,32.8,27.9,30.03,North,0,0.0,0.0,82,0.00,,,0.00,WUHU216HW,2013-01-21 11:00:00,
2013-01-21 06:05:00,32.8,27.9,30.03,North,0,0.0,0.0,82,0.00,,,0.00,WUHU216HW,2013-01-21 11:05:00,
2013-01-21 06:30:00,32.4,27.5,30.03,North,0,0.0,0.0,82,0.00,,,0.00,WUHU216HW,2013-01-21 11:30:00,
2013-01-21 06:35:00,32.4,27.5,30.03,North,0,0.0,0.0,82,0.00,,,0.00,WUHU216HW,2013-01-21 11:35:00,
2013-01-21 07:00:00,31.9,27.4,30.04,North,0,0.0,0.0,83,0.00,,,0.00,WUHU216HW,2013-01-21 12:00:00,
2013-01-21 07:05:00,31.9,27.4,30.04,North,0,0.0,0.0,83,0.00,,,0.00,WUHU216HW,2013-01-21 12:05:00,
2013-01-21 07:30:00,31.7,27.2,30.04,North,0,0.0,0.0,83,0.00,,,0.00,WUHU216HW,2013-01-21 12:30:00,
2013-01-21 07:35:00,31.7,27.2,30.04,North,0,0.0,0.0,83,0.00,,,0.00,WUHU216HW,2013-01-21 12:35:00,
2013-01-21 08:00:00,31.7,27.2,30.04,North,0,0.0,0.0,83,0.00,,,0.00,WUHU216HW,2013-01-21 13:00:00,
2013-01-21 08:05:00,31.7,27.2,30.04,North,0,0.0,0.0,83,0.00,,,0.00,WUHU216HW,2013-01-21 13:05:00,
2013-01-21 08:30:00,35.1,30.7,30.05,North,0,0.0,0.0,84,0.00,,,0.00,WUHU216HW,2013-01-21 13:30:00,
2013-01-21 08:35:00,35.1,30.7,30.05,North,0,0.0,0.0,84,0.00,,,0.00,WUHU216HW,2013-01-21 13:35:00,
2013-01-21 09:00:00,39.2,34.8,30.06,North,0,0.0,0.0,84,0.00,,,0.00,WUHU216HW,2013-01-21 14:00:00,
2013-01-21 09:05:00,39.2,34.8,30.06,North,0,0.0,0.0,84,0.00,,,0.00,WUHU216HW,2013-01-21 14:05:00,
2013-01-21 10:30:00,52.6,36.8,30.06,East,90,0.2,0.2,55,0.00,,,0.00,WUHU216HW,2013-01-21 15:30:00,
2013-01-21 12:30:00,60.3,36.5,29.97,SSE,158,0.4,0.4,41,0.00,,,0.00,WUHU216HW,2013-01-21 17:30:00,
2013-01-21 12:35:00,60.3,36.5,29.97,SSE,158,0.4,0.4,41,0.00,,,0.00,WUHU216HW,2013-01-21 17:35:00,
2013-01-21 13:00:00,61.7,37.7,29.95,WSW,248,4.0,4.0,41,0.00,,,0.00,WUHU216HW,2013-01-21 18:00:00,
2013-01-21 13:05:00,61.7,37.7,29.95,WSW,248,4.0,4.0,41,0.00,,,0.00,WUHU216HW,2013-01-21 18:05:00,
2013-01-21 15:30:00,64.3,38.7,29.89,WSW,248,3.8,3.8,39,0.00,,,0.00,WUHU216HW,2013-01-21 20:30:00,
2013-01-21 15:35:00,64.3,38.7,29.89,WSW,248,3.8,3.8,39,0.00,,,0.00,WUHU216HW,2013-01-21 20:35:00,
2013-01-21 17:00:00,61.0,39.4,29.89,WSW,248,2.0,2.0,45,0.00,,,0.00,WUHU216HW,2013-01-21 22:00:00,
2013-01-21 17:05:00,61.0,39.4,29.89,WSW,248,1.1,2.0,45,0.00,,,0.00,WUHU216HW,2013-01-21 22:05:00,
2013-01-21 17:30:00,58.9,38.6,29.90,WSW,248,0.0,0.0,47,0.00,,,0.00,WUHU216HW,2013-01-21 22:30:00,
2013-01-21 17:35:00,58.9,38.6,29.90,WSW,248,0.0,0.0,47,0.00,,,0.00,WUHU216HW,2013-01-21 22:35:00,
2013-01-21 18:00:00,55.1,37.3,29.90,West,270,0.0,0.0,51,0.00,,,0.00,WUHU216HW,2013-01-21 23:00:00,
2013-01-21 18:05:00,55.1,37.3,29.90,West,270,0.0,0.0,51,0.00,,,0.00,WUHU216HW,2013-01-21 23:05:00,
2013-01-21 18:30:00,51.8,36.5,29.91,SSW,203,0.0,0.0,56,0.00,,,0.00,WUHU216HW,2013-01-21 23:30:00,
2013-01-21 19:00:00,49.9,37.0,29.91,SW,225,0.4,0.4,61,0.00,,,0.00,WUHU216HW,2013-01-22 00:00:00,
2013-01-21 19:05:00,49.9,37.0,29.91,SW,225,0.4,0.4,61,0.00,,,0.00,WUHU216HW,2013-01-22 00:05:00,
2013-01-21 19:30:00,48.2,36.3,29.91,SW,225,0.9,0.9,63,0.00,,,0.00,WUHU216HW,2013-01-22 00:30:00,
2013-01-21 19:35:00,48.2,36.3,29.91,SW,225,0.9,0.9,63,0.00,,,0.00,WUHU216HW,2013-01-22 00:35:00,
2013-01-21 20:30:00,45.9,35.2,29.92,WSW,248,0.7,0.7,66,0.00,,,0.00,WUHU216HW,2013-01-22 01:30:00,
2013-01-21 20:35:00,45.9,35.2,29.92,WSW,248,0.7,0.7,66,0.00,,,0.00,WUHU216HW,2013-01-22 01:35:00,
2013-01-21 21:00:00,45.0,34.7,29.92,SW,225,0.9,0.9,67,0.00,,,0.00,WUHU216HW,2013-01-22 02:00:00,
2013-01-21 21:05:00,45.0,34.7,29.92,SW,225,0.9,0.9,67,0.00,,,0.00,WUHU216HW,2013-01-22 02:05:00,
2013-01-21 21:30:00,45.0,35.1,29.92,WSW,248,2.9,2.9,68,0.00,,,0.00,WUHU216HW,2013-01-22 02:30:00,
2013-01-21 21:35:00,45.0,35.1,29.92,WSW,248,2.9,2.9,68,0.00,,,0.00,WUHU216HW,2013-01-22 02:35:00,
2013-01-21 22:30:00,51.7,35.0,29.95,WSW,248,2.5,2.5,53,0.00,,,0.00,WUHU216HW,2013-01-22 03:30:00,
2013-01-21 22:35:00,51.7,35.0,29.95,WSW,248,2.5,2.5,53,0.00,,,0.00,WUHU216HW,2013-01-22 03:35:00,
2013-01-21 23:00:00,50.9,33.9,29.96,West,270,3.1,3.1,52,0.00,,,0.00,WUHU216HW,2013-01-22 04:00:00,
2013-01-21 23:05:00,50.9,33.9,29.96,West,270,3.1,3.1,52,0.00,,,0.00,WUHU216HW,2013-01-22 04:05:00,
2013-01-21 23:30:00,49.7,31.9,29.97,West,270,0.4,0.4,50,0.00,,,0.00,WUHU216HW,2013-01-22 04:30:00,